Date,TemperatureHighF,TemperatureAvgF,TemperatureLowF,DewpointHighF,DewpointAvgF,DewpointLowF,HumidityHigh,HumidityAvg,HumidityLow,PressureMaxIn,PressureMinIn,WindSpeedMaxMPH,WindSpeedAvgMPH,GustSpeedMaxMPH,PrecipitationSumIn
2013-1-1,43,40,38,40,38,37,99,95,85,29.88,29.69,8,2,8,0.00
2013-1-2,40,36,30,38,31,28,97,81,67,29.96,29.86,8,2,8,0.00
2013-1-3,51,36,24,32,27,21,95,74,41,30.10,29.94,11,2,11,0.00
2013-1-4,53,37,27,34,26,19,93,69,29,30.17,30.03,10,2,10,0.01
2013-1-5,51,41,32,37,33,26,90,75,54,30.05,29.90,12,2,12,0.00
2013-1-6,61,40,28,41,29,25,95,71,28,30.05,29.92,11,2,11,0.00
2013-1-7,58,38,24,34,26,19,96,69,25,30.10,29.87,11,2,11,0.00
2013-1-8,57,44,30,45,37,27,94,77,57,29.90,29.76,8,2,8,0.00
2013-1-9,53,51,48,52,50,45,99,97,81,29.97,29.82,18,4,18,1.31
2013-1-10,67,59,53,63,57,49,99,94,82,29.85,29.52,15,5,15,0.02
2013-1-11,69,55,42,53,49,42,99,82,54,29.67,29.54,14,3,14,0.01
2013-1-12,74,64,47,70,61,45,99,90,78,29.59,29.34,20,5,20,1.37
2013-1-13,47,40,31,45,35,23,97,84,65,29.96,29.48,15,5,15,0.22
2013-1-14,42,31,26,23,18,13,73,59,40,30.10,29.94,15,4,15,0.00
2013-1-15,33,30,26,30,22,13,88,73,54,29.98,29.78,12,4,12,0.00
2013-1-16,55,38,28,29,23,12,86,61,22,29.87,29.77,10,2,10,0.02
2013-1-17,66,42,26,38,28,21,88,61,32,30.17,29.85,12,3,12,0.02
2013-1-18,58,40,26,34,27,22,90,63,28,30.22,29.99,9,2,9,0.00
2013-1-19,62,44,28,35,30,25,88,62,29,29.99,29.82,14,3,14,0.00
2013-1-20,64,47,31,40,33,28,93,64,30,29.94,29.80,14,2,14,0.00
2013-1-21,52,41,32,36,23,11,84,52,23,30.02,29.83,15,3,15,0.00
2013-1-22,49,36,26,26,22,19,77,60,36,30.08,29.95,11,2,11,0.00
2013-1-23,67,47,33,49,36,25,93,68,45,29.99,29.82,9,2,9,0.00
2013-1-24,47,40,35,43,29,16,96,65,37,30.04,29.85,19,6,19,0.00
2013-1-25,53,40,33,41,34,24,92,78,63,29.91,29.75,8,2,8,0.01
2013-1-26,47,41,32,40,35,30,98,81,66,29.99,29.88,9,2,9,0.00
2013-1-27,66,54,44,58,49,38,97,86,70,29.89,29.71,11,2,11,0.00
2013-1-28,75,68,62,65,62,58,92,81,67,29.77,29.65,24,8,24,0.00
2013-1-29,71,67,56,67,62,52,95,86,74,29.65,29.15,24,7,24,0.27
2013-1-30,56,46,33,52,36,24,95,71,46,29.75,29.22,24,6,24,0.02
2013-1-31,62,44,27,34,27,22,88,56,22,30.00,29.73,17,4,17,0.00